createdAt,value
2022-11-28T00:00:46.875Z,16.6
2022-11-28T00:01:49.479Z,16.7
2022-11-28T00:02:52.241Z,16.7
2022-11-28T00:03:55.507Z,16.7
2022-11-28T00:04:58.986Z,16.7
2022-11-28T00:06:02.028Z,16.7
2022-11-28T00:07:04.733Z,16.7
2022-11-28T00:08:07.186Z,16.7
2022-11-28T00:09:09.512Z,16.7
2022-11-28T00:10:11.506Z,16.8
2022-11-28T00:11:13.696Z,16.8
2022-11-28T00:12:15.637Z,16.7
2022-11-28T00:13:17.863Z,16.7
2022-11-28T00:14:20.384Z,16.8
2022-11-28T00:15:22.330Z,16.8
2022-11-28T00:16:24.728Z,16.8
2022-11-28T00:17:26.977Z,16.7
2022-11-28T00:18:29.468Z,16.9
2022-11-28T00:19:31.636Z,16.8
2022-11-28T00:20:34.247Z,16.8
2022-11-28T00:21:36.739Z,16.8
2022-11-28T00:22:38.781Z,16.8
2022-11-28T00:23:41.019Z,16.8
2022-11-28T00:24:44.197Z,16.8
2022-11-28T00:25:46.678Z,16.8
2022-11-28T00:26:48.894Z,16.8
2022-11-28T00:27:51.114Z,16.8
2022-11-28T00:28:53.297Z,16.8
2022-11-28T00:29:55.783Z,16.8
2022-11-28T00:30:57.981Z,16.8
2022-11-28T00:32:00.583Z,16.8
2022-11-28T00:33:03.051Z,16.8
2022-11-28T00:34:05.540Z,16.8
2022-11-28T00:35:12.101Z,16.8
2022-11-28T00:36:14.877Z,16.8
2022-11-28T00:37:17.345Z,16.8
2022-11-28T00:38:19.941Z,16.8
2022-11-28T00:39:22.409Z,16.9
2022-11-28T00:40:24.724Z,16.9
2022-11-28T00:41:27.199Z,16.9
2022-11-28T00:42:29.140Z,16.9
2022-11-28T00:43:31.606Z,16.9
2022-11-28T00:44:33.954Z,16.9
2022-11-28T00:45:36.037Z,16.9
2022-11-28T00:46:38.801Z,16.9
2022-11-28T00:47:41.276Z,16.9
2022-11-28T00:48:43.758Z,16.9
2022-11-28T00:49:45.679Z,17
2022-11-28T00:50:48.003Z,16.8
2022-11-28T00:51:50.722Z,16.9
2022-11-28T00:52:52.627Z,16.9
2022-11-28T00:53:55.233Z,16.8
2022-11-28T00:54:57.717Z,16.9
2022-11-28T00:56:00.085Z,16.8
2022-11-28T00:57:02.569Z,16.9
2022-11-28T00:58:04.513Z,16.8
2022-11-28T00:59:06.729Z,16.9
2022-11-28T01:00:08.628Z,16.9
2022-11-28T01:01:11.234Z,17
2022-11-28T01:02:13.755Z,16.9
2022-11-28T01:03:16.294Z,17
2022-11-28T01:04:18.765Z,17
2022-11-28T01:05:21.240Z,16.9
2022-11-28T01:06:23.839Z,16.9
2022-11-28T01:07:26.674Z,16.9
2022-11-28T01:08:29.653Z,17
2022-11-28T01:09:32.252Z,17
2022-11-28T01:10:34.189Z,17
2022-11-28T01:11:36.802Z,16.9
2022-11-28T01:12:38.738Z,17
2022-11-28T01:13:41.275Z,16.9
2022-11-28T01:14:43.651Z,17
2022-11-28T01:15:46.007Z,16.9
2022-11-28T01:16:48.307Z,17
2022-11-28T01:17:51.243Z,17
2022-11-28T01:18:53.717Z,17
2022-11-28T01:19:55.902Z,17
2022-11-28T01:20:57.824Z,17
2022-11-28T01:22:00.434Z,17
2022-11-28T01:23:02.593Z,16.9
2022-11-28T01:24:04.510Z,17
2022-11-28T01:25:07.095Z,17
2022-11-28T01:26:09.287Z,17
2022-11-28T01:27:11.627Z,17
2022-11-28T01:28:13.843Z,17
2022-11-28T01:29:16.053Z,17
2022-11-28T01:30:18.257Z,16.9
2022-11-28T01:31:20.869Z,17
2022-11-28T01:32:23.700Z,16.9
2022-11-28T01:33:26.191Z,17
2022-11-28T01:34:28.390Z,16.9
2022-11-28T01:35:30.891Z,17
2022-11-28T01:36:33.078Z,17
2022-11-28T01:37:35.672Z,17.1
2022-11-28T01:38:38.364Z,16.9
2022-11-28T01:39:40.273Z,17
2022-11-28T01:40:42.577Z,17
2022-11-28T01:41:45.079Z,17
2022-11-28T01:42:47.706Z,17
2022-11-28T01:43:49.911Z,16.9
2022-11-28T01:44:52.086Z,16.9
2022-11-28T01:45:54.288Z,16.9
2022-11-28T01:46:56.594Z,17
2022-11-28T01:47:59.494Z,17
2022-11-28T01:49:01.694Z,17
2022-11-28T01:50:03.905Z,17
2022-11-28T01:51:06.387Z,16.9
2022-11-28T01:52:08.764Z,16.9
2022-11-28T01:53:11.099Z,17
2022-11-28T01:54:13.827Z,16.9
2022-11-28T01:55:15.738Z,16.8
2022-11-28T01:56:18.045Z,17
2022-11-28T01:57:20.533Z,16.9
2022-11-28T01:58:23.140Z,16.9
2022-11-28T01:59:25.606Z,17
2022-11-28T02:00:27.815Z,16.9
2022-11-28T02:01:30.408Z,16.8
2022-11-28T02:02:33.284Z,17
2022-11-28T02:03:36.145Z,17
2022-11-28T02:04:38.059Z,16.9
2022-11-28T02:05:40.333Z,16.8
2022-11-28T02:06:42.836Z,16.9
2022-11-28T02:07:45.207Z,17
2022-11-28T02:08:48.095Z,16.9
2022-11-28T02:09:50.820Z,16.9
2022-11-28T02:10:52.999Z,16.9
2022-11-28T02:11:55.600Z,16.9
2022-11-28T02:12:58.101Z,16.9
2022-11-28T02:14:00.481Z,16.8
2022-11-28T02:15:02.684Z,16.8
2022-11-28T02:16:05.235Z,16.8
2022-11-28T02:17:07.663Z,16.8
2022-11-28T02:18:09.864Z,16.8
2022-11-28T02:19:12.044Z,16.9
2022-11-28T02:20:14.524Z,16.9
2022-11-28T02:21:16.495Z,16.8
2022-11-28T02:22:19.011Z,16.9
2022-11-28T02:23:20.929Z,16.9
2022-11-28T02:24:23.253Z,16.9
2022-11-28T02:25:25.962Z,16.9
2022-11-28T02:26:28.454Z,16.9
2022-11-28T02:27:31.039Z,16.8
2022-11-28T02:28:33.519Z,16.8
2022-11-28T02:29:35.839Z,16.9
2022-11-28T02:30:38.123Z,17
2022-11-28T02:31:40.714Z,16.9
2022-11-28T02:32:43.287Z,16.9
2022-11-28T02:33:45.225Z,16.9
2022-11-28T02:34:48.237Z,16.8
2022-11-28T02:35:51.909Z,16.8
2022-11-28T02:36:54.115Z,16.7
2022-11-28T02:37:56.595Z,16.8
2022-11-28T02:38:58.831Z,17
2022-11-28T02:40:01.150Z,16.8
2022-11-28T02:41:03.887Z,16.8
2022-11-28T02:42:06.360Z,16.8
2022-11-28T02:43:08.958Z,16.9
2022-11-28T02:44:11.427Z,16.8
2022-11-28T02:45:13.764Z,16.8
2022-11-28T02:46:16.434Z,16.8
2022-11-28T02:47:18.960Z,16.8
2022-11-28T02:48:21.158Z,16.9
2022-11-28T02:49:23.646Z,16.8
2022-11-28T02:50:26.118Z,16.8
2022-11-28T02:51:28.320Z,16.8
2022-11-28T02:52:30.519Z,16.8
2022-11-28T02:53:32.995Z,16.8
2022-11-28T02:54:35.213Z,16.9
2022-11-28T02:55:37.812Z,16.8
2022-11-28T02:56:40.518Z,16.9
2022-11-28T02:57:43.000Z,16.9
2022-11-28T02:58:45.315Z,16.8
2022-11-28T02:59:47.512Z,16.8
2022-11-28T03:00:49.930Z,16.8
2022-11-28T03:01:52.864Z,16.8
2022-11-28T03:02:55.609Z,16.8
2022-11-28T03:03:57.801Z,16.9
2022-11-28T03:05:00.023Z,16.9
2022-11-28T03:06:02.507Z,16.8
2022-11-28T03:07:04.980Z,16.8
2022-11-28T03:08:07.460Z,16.8
2022-11-28T03:09:09.969Z,16.8
2022-11-28T03:10:12.446Z,16.9
2022-11-28T03:11:15.021Z,16.9
2022-11-28T03:12:17.753Z,16.8
2022-11-28T03:13:20.238Z,16.8
2022-11-28T03:14:22.301Z,16.8
2022-11-28T03:15:24.488Z,16.8
2022-11-28T03:16:27.305Z,16.8
2022-11-28T03:17:29.452Z,16.8
2022-11-28T03:18:31.649Z,16.8
2022-11-28T03:19:33.845Z,16.9
2022-11-28T03:20:36.057Z,16.7
2022-11-28T03:21:38.282Z,16.8
2022-11-28T03:22:40.200Z,16.8
2022-11-28T03:23:42.413Z,16.7
2022-11-28T03:24:45.000Z,16.8
2022-11-28T03:25:47.523Z,16.9
2022-11-28T03:26:50.128Z,16.9
2022-11-28T03:27:52.860Z,16.8
2022-11-28T03:28:55.343Z,16.9
2022-11-28T03:29:57.656Z,16.8
2022-11-28T03:31:00.128Z,16.8
2022-11-28T03:32:02.809Z,16.8
2022-11-28T03:33:05.017Z,16.9
2022-11-28T03:34:07.524Z,16.9
2022-11-28T03:35:09.752Z,16.8
2022-11-28T03:36:11.956Z,16.8
2022-11-28T03:37:14.439Z,16.9
2022-11-28T03:38:16.642Z,16.9
2022-11-28T03:39:19.133Z,16.8
2022-11-28T03:40:21.621Z,16.8
2022-11-28T03:41:24.097Z,16.8
2022-11-28T03:42:26.424Z,16.8
2022-11-28T03:43:29.125Z,16.8
2022-11-28T03:44:31.336Z,16.8
2022-11-28T03:45:33.940Z,16.9
2022-11-28T03:46:36.592Z,16.8
2022-11-28T03:47:39.187Z,16.7
2022-11-28T03:48:41.668Z,16.9
2022-11-28T03:49:44.140Z,16.7
2022-11-28T03:50:46.366Z,16.9
2022-11-28T03:51:48.848Z,16.8
2022-11-28T03:52:51.047Z,16.8
2022-11-28T03:53:53.243Z,16.8
2022-11-28T03:54:55.720Z,16.8
2022-11-28T03:55:58.305Z,16.8
2022-11-28T03:57:01.096Z,16.8
2022-11-28T03:58:03.682Z,16.8
2022-11-28T03:59:06.406Z,16.9
2022-11-28T04:00:08.869Z,16.8
2022-11-28T04:01:11.568Z,16.8
2022-11-28T04:02:14.451Z,16.8
2022-11-28T04:03:17.178Z,16.8
2022-11-28T04:04:20.095Z,16.8
2022-11-28T04:05:22.588Z,16.9
2022-11-28T04:06:24.802Z,16.8
2022-11-28T04:07:27.228Z,16.8
2022-11-28T04:08:30.161Z,16.8
2022-11-28T04:09:32.700Z,16.8
2022-11-28T04:10:35.211Z,16.8
2022-11-28T04:11:37.723Z,16.8
2022-11-28T04:12:40.278Z,16.8
2022-11-28T04:13:42.868Z,16.8
2022-11-28T04:14:45.766Z,16.7
2022-11-28T04:15:48.230Z,16.8
2022-11-28T04:17:55.691Z,16.7
2022-11-28T04:18:58.312Z,16.8
2022-11-28T04:20:00.780Z,16.8
2022-11-28T04:21:02.997Z,16.7
2022-11-28T04:22:05.472Z,16.8
2022-11-28T04:23:07.688Z,16.8
2022-11-28T04:24:10.151Z,16.8
2022-11-28T04:25:12.638Z,16.8
2022-11-28T04:26:15.122Z,16.8
2022-11-28T04:27:17.059Z,16.8
2022-11-28T04:28:19.257Z,16.7
2022-11-28T04:29:21.844Z,16.8
2022-11-28T04:30:24.268Z,16.8
2022-11-28T04:31:26.936Z,16.8
2022-11-28T04:32:29.914Z,16.7
2022-11-28T04:33:32.119Z,16.8
2022-11-28T04:34:34.415Z,16.8
2022-11-28T04:35:36.916Z,16.8
2022-11-28T04:36:38.840Z,16.8
2022-11-28T04:37:41.338Z,16.7
2022-11-28T04:38:43.821Z,16.8
2022-11-28T04:39:46.453Z,16.8
2022-11-28T04:40:48.960Z,16.7
2022-11-28T04:41:51.197Z,16.7
2022-11-28T04:42:53.841Z,16.8
2022-11-28T04:43:56.346Z,16.8
2022-11-28T04:44:58.956Z,16.7
2022-11-28T04:46:01.815Z,16.8
2022-11-28T04:47:04.265Z,16.8
2022-11-28T04:48:06.920Z,16.7
2022-11-28T04:49:09.433Z,16.7
2022-11-28T04:50:11.494Z,16.7
2022-11-28T04:51:13.973Z,16.8
2022-11-28T04:52:16.180Z,16.8
2022-11-28T04:53:18.118Z,16.8
2022-11-28T04:54:20.607Z,16.7
2022-11-28T04:55:22.805Z,16.9
2022-11-28T04:56:25.292Z,16.9
2022-11-28T04:57:27.765Z,16.8
2022-11-28T04:58:29.949Z,16.8
2022-11-28T04:59:32.422Z,16.7
2022-11-28T05:00:34.538Z,16.7
2022-11-28T05:01:37.228Z,16.8
2022-11-28T05:02:40.062Z,16.8
2022-11-28T05:03:43.521Z,16.7
2022-11-28T05:04:46.059Z,16.8
2022-11-28T05:05:48.669Z,16.7
2022-11-28T05:06:50.859Z,16.7
2022-11-28T05:07:53.589Z,16.8
2022-11-28T05:08:56.296Z,16.8
2022-11-28T05:09:58.775Z,16.7
2022-11-28T05:11:01.261Z,16.9
2022-11-28T05:12:03.492Z,16.8
2022-11-28T05:13:05.985Z,16.7
2022-11-28T05:14:08.464Z,16.7
2022-11-28T05:15:10.939Z,16.7
2022-11-28T05:16:13.672Z,16.7
2022-11-28T05:17:16.014Z,16.7
2022-11-28T05:18:18.232Z,16.8
2022-11-28T05:19:20.824Z,16.7
2022-11-28T05:20:23.329Z,16.7
2022-11-28T05:21:25.924Z,16.7
2022-11-28T05:22:28.124Z,16.8
2022-11-28T05:23:30.316Z,16.8
2022-11-28T05:24:33.081Z,16.8
2022-11-28T05:25:35.550Z,16.7
2022-11-28T05:26:38.031Z,16.7
2022-11-28T05:27:40.493Z,16.8
2022-11-28T05:28:42.973Z,16.7
2022-11-28T05:30:50.153Z,16.8
2022-11-28T05:31:52.956Z,16.8
2022-11-28T05:32:56.052Z,16.8
2022-11-28T05:33:58.568Z,16.7
2022-11-28T05:35:01.162Z,16.7
2022-11-28T05:36:04.733Z,16.7
2022-11-28T05:37:08.953Z,16.7
2022-11-28T05:39:16.404Z,16.7
2022-11-28T05:40:18.611Z,16.8
2022-11-28T05:41:20.807Z,16.7
2022-11-28T05:42:22.523Z,16.8
2022-11-28T05:43:24.479Z,16.8
2022-11-28T05:44:27.782Z,16.7
2022-11-28T05:45:30.380Z,16.7
2022-11-28T05:46:33.085Z,16.7
2022-11-28T05:47:35.416Z,16.7
2022-11-28T05:48:37.573Z,16.8
2022-11-28T05:49:40.011Z,16.7
2022-11-28T05:50:43.771Z,16.7
2022-11-28T05:51:45.962Z,16.8
2022-11-28T05:52:48.566Z,16.8
2022-11-28T05:53:50.746Z,16.7
2022-11-28T05:54:53.227Z,16.7
2022-11-28T05:55:55.423Z,16.7
2022-11-28T05:56:57.366Z,16.7
2022-11-28T05:57:59.582Z,16.7
2022-11-28T05:59:02.076Z,16.8
2022-11-28T06:00:04.005Z,16.8
2022-11-28T06:01:06.497Z,16.8
2022-11-28T06:02:09.163Z,16.7
2022-11-28T06:03:11.812Z,16.8
2022-11-28T06:04:14.609Z,16.8
2022-11-28T06:06:22.358Z,16.7
2022-11-28T06:07:24.997Z,16.7
2022-11-28T06:08:27.649Z,16.7
2022-11-28T06:09:30.134Z,16.7
2022-11-28T06:10:32.604Z,16.8
2022-11-28T06:11:34.816Z,16.7
2022-11-28T06:12:37.286Z,16.7
2022-11-28T06:13:39.513Z,16.7
2022-11-28T06:14:41.978Z,16.7
2022-11-28T06:15:44.456Z,16.7
2022-11-28T06:16:46.628Z,16.7
2022-11-28T06:17:49.286Z,16.7
2022-11-28T06:18:52.083Z,16.7
2022-11-28T06:19:55.283Z,16.7
2022-11-28T06:20:57.753Z,16.8
2022-11-28T06:22:00.362Z,16.8
2022-11-28T06:23:02.863Z,16.7
2022-11-28T06:24:05.468Z,16.8
2022-11-28T06:25:07.975Z,16.8
2022-11-28T06:26:10.478Z,16.7
2022-11-28T06:27:12.696Z,16.7
2022-11-28T06:28:14.633Z,16.8
2022-11-28T06:29:16.577Z,16.7
2022-11-28T06:30:18.794Z,16.7
2022-11-28T06:31:21.441Z,16.7
2022-11-28T06:32:23.411Z,16.7
2022-11-28T06:33:25.656Z,16.7
2022-11-28T06:34:28.253Z,16.6
2022-11-28T06:35:30.699Z,16.8
2022-11-28T06:36:32.926Z,16.7
2022-11-28T06:37:35.257Z,16.7
2022-11-28T06:38:37.740Z,16.7
2022-11-28T06:39:40.836Z,16.8
2022-11-28T06:40:44.339Z,16.7
2022-11-28T06:41:46.532Z,16.7
2022-11-28T06:42:49.031Z,16.8
2022-11-28T06:43:51.249Z,16.7
2022-11-28T06:44:53.444Z,16.8
2022-11-28T06:45:56.065Z,16.8
2022-11-28T06:46:58.791Z,16.7
2022-11-28T06:48:01.259Z,16.7
2022-11-28T06:49:03.185Z,16.8
2022-11-28T06:50:05.783Z,16.7
2022-11-28T06:51:08.314Z,16.8
2022-11-28T06:52:10.543Z,16.8
2022-11-28T06:53:13.147Z,16.7
2022-11-28T06:54:15.378Z,16.8
2022-11-28T06:55:17.788Z,16.8
2022-11-28T06:56:20.015Z,16.8
2022-11-28T06:57:22.221Z,16.7
2022-11-28T06:58:24.692Z,16.7
2022-11-28T06:59:27.179Z,16.7
2022-11-28T07:00:29.644Z,16.7
2022-11-28T07:01:32.444Z,16.8
2022-11-28T07:02:35.405Z,16.7
2022-11-28T07:03:38.292Z,16.7
2022-11-28T07:04:40.774Z,16.7
2022-11-28T07:05:43.361Z,16.7
2022-11-28T07:06:46.084Z,16.7
2022-11-28T07:08:53.681Z,16.7
2022-11-28T07:09:55.890Z,16.7
2022-11-28T07:10:58.496Z,16.7
2022-11-28T07:12:00.722Z,16.7
2022-11-28T07:14:07.918Z,16.8
2022-11-28T07:15:10.418Z,16.7
2022-11-28T07:16:13.028Z,16.8
2022-11-28T07:17:15.537Z,16.8
2022-11-28T07:18:17.507Z,16.6
2022-11-28T07:19:19.723Z,16.7
2022-11-28T07:20:22.192Z,16.7
2022-11-28T07:21:24.810Z,16.8
2022-11-28T07:22:27.552Z,16.7
2022-11-28T07:23:30.043Z,16.6
2022-11-28T07:24:32.371Z,16.7
2022-11-28T07:25:34.600Z,16.7
2022-11-28T07:26:36.942Z,16.7
2022-11-28T07:27:39.674Z,16.7
2022-11-28T07:28:41.885Z,16.7
2022-11-28T07:29:44.899Z,16.7
2022-11-28T07:30:46.925Z,16.7
2022-11-28T07:31:49.565Z,16.7
2022-11-28T07:32:52.331Z,16.7
2022-11-28T07:33:54.547Z,16.7
2022-11-28T07:34:57.055Z,16.7
2022-11-28T07:35:59.555Z,16.7
2022-11-28T07:37:02.136Z,16.7
2022-11-28T07:38:04.499Z,16.7
2022-11-28T07:39:06.999Z,16.7
2022-11-28T07:40:09.593Z,16.7
2022-11-28T07:41:11.872Z,16.7
2022-11-28T07:42:14.206Z,16.8
2022-11-28T07:43:17.214Z,16.7
2022-11-28T07:44:19.717Z,16.7
2022-11-28T07:45:32.924Z,16.7
2022-11-28T07:46:29.210Z,16.7
2022-11-28T07:47:31.562Z,16.7
2022-11-28T07:48:34.082Z,16.7
2022-11-28T07:49:36.571Z,16.6
2022-11-28T07:50:38.801Z,16.7
2022-11-28T07:51:41.027Z,16.7
2022-11-28T07:52:43.257Z,16.7
2022-11-28T07:53:45.249Z,16.7
2022-11-28T07:54:47.737Z,16.7
2022-11-28T07:55:49.988Z,16.6
2022-11-28T07:57:57.235Z,16.7
2022-11-28T08:00:04.714Z,16.8
2022-11-28T08:01:07.214Z,16.7
2022-11-28T08:02:09.647Z,16.6
2022-11-28T08:03:12.066Z,16.7
2022-11-28T08:04:14.683Z,16.7
2022-11-28T08:05:17.526Z,16.7
2022-11-28T08:06:19.190Z,16.7
2022-11-28T08:07:21.509Z,16.7
2022-11-28T08:08:24.386Z,16.6
2022-11-28T08:09:26.933Z,16.7
2022-11-28T08:10:29.427Z,16.7
2022-11-28T08:11:31.931Z,16.7
2022-11-28T08:12:34.418Z,16.7
2022-11-28T08:13:36.088Z,16.7
2022-11-28T08:14:38.576Z,16.7
2022-11-28T08:15:41.420Z,16.8
2022-11-28T08:16:43.974Z,16.7
2022-11-28T08:17:46.506Z,16.7
2022-11-28T08:18:48.993Z,16.7
2022-11-28T08:19:51.219Z,16.7
2022-11-28T08:20:53.699Z,16.7
2022-11-28T08:21:55.633Z,16.7
2022-11-28T08:22:57.829Z,16.6
2022-11-28T08:24:00.082Z,16.7
2022-11-28T08:25:02.641Z,16.6
2022-11-28T08:26:04.569Z,16.8
2022-11-28T08:27:07.073Z,16.7
2022-11-28T08:28:09.272Z,16.7
2022-11-28T08:29:11.498Z,16.7
2022-11-28T08:30:13.718Z,16.7
2022-11-28T08:31:16.116Z,16.6
2022-11-28T08:32:18.718Z,16.6
2022-11-28T08:33:21.219Z,16.8
2022-11-28T08:34:23.707Z,16.6
2022-11-28T08:35:26.197Z,16.7
2022-11-28T08:36:30.115Z,16.6
2022-11-28T08:37:32.602Z,16.7
2022-11-28T08:38:35.101Z,16.7
2022-11-28T08:39:37.600Z,16.6
2022-11-28T08:40:40.134Z,16.7
2022-11-28T08:41:42.622Z,16.7
2022-11-28T08:42:44.854Z,16.7
2022-11-28T08:43:46.801Z,16.6
2022-11-28T08:44:49.069Z,16.6
2022-11-28T08:45:51.122Z,16.7
2022-11-28T08:46:53.622Z,16.6
2022-11-28T08:47:56.120Z,16.7
2022-11-28T08:48:58.338Z,16.6
2022-11-28T08:50:00.539Z,16.7
2022-11-28T08:51:03.035Z,16.7
2022-11-28T08:52:05.261Z,16.6
2022-11-28T08:53:08.284Z,16.7
2022-11-28T08:54:10.796Z,16.6
2022-11-28T08:55:13.073Z,16.7
2022-11-28T08:56:15.711Z,16.7
2022-11-28T08:57:17.398Z,16.7
2022-11-28T08:58:19.951Z,16.7
2022-11-28T08:59:22.183Z,16.7
2022-11-28T09:00:24.762Z,16.7
2022-11-28T09:01:27.126Z,16.7
2022-11-28T09:02:29.993Z,16.7
2022-11-28T09:03:32.640Z,16.6
2022-11-28T09:04:35.281Z,16.6
2022-11-28T09:05:37.481Z,16.7
2022-11-28T09:06:39.995Z,16.6
2022-11-28T09:07:42.695Z,16.7
2022-11-28T09:08:45.526Z,16.7
2022-11-28T09:09:48.867Z,16.7
2022-11-28T09:10:51.593Z,16.7
2022-11-28T09:11:53.854Z,16.6
2022-11-28T09:12:56.373Z,16.5
2022-11-28T09:13:58.326Z,16.6
2022-11-28T09:14:59.974Z,16.7
2022-11-28T09:16:01.936Z,16.6
2022-11-28T09:17:04.333Z,16.6
2022-11-28T09:18:06.189Z,16.7
2022-11-28T09:19:08.497Z,16.7
2022-11-28T09:20:10.920Z,16.6
2022-11-28T09:21:13.432Z,16.6
2022-11-28T09:22:15.930Z,16.6
2022-11-28T09:23:18.434Z,16.6
2022-11-28T09:24:20.676Z,16.6
2022-11-28T09:25:22.677Z,16.6
2022-11-28T09:26:24.905Z,16.5
2022-11-28T09:27:27.429Z,16.7
2022-11-28T09:28:29.912Z,16.6
2022-11-28T09:29:32.150Z,16.7
2022-11-28T09:30:34.741Z,16.7
2022-11-28T09:31:37.298Z,16.6
2022-11-28T09:32:43.471Z,16.7
2022-11-28T09:33:45.974Z,16.6
2022-11-28T09:34:48.170Z,16.6
2022-11-28T09:35:50.405Z,16.7
2022-11-28T09:36:52.610Z,16.6
2022-11-28T09:37:55.114Z,16.6
2022-11-28T09:38:57.320Z,16.5
2022-11-28T09:41:04.505Z,16.6
2022-11-28T09:42:07.042Z,16.7
2022-11-28T09:43:09.577Z,16.7
2022-11-28T09:44:12.081Z,16.7
2022-11-28T09:45:14.283Z,16.7
2022-11-28T09:46:16.857Z,16.6
2022-11-28T09:47:19.658Z,16.6
2022-11-28T09:48:22.135Z,16.6
2022-11-28T09:49:24.353Z,16.6
2022-11-28T09:50:26.279Z,16.6
2022-11-28T09:51:28.575Z,16.6
2022-11-28T09:52:31.265Z,16.6
2022-11-28T09:53:34.066Z,16.5
2022-11-28T09:54:36.552Z,16.5
2022-11-28T09:55:38.486Z,16.7
2022-11-28T09:56:40.988Z,16.6
2022-11-28T09:57:42.961Z,16.7
2022-11-28T09:58:45.227Z,16.6
2022-11-28T09:59:47.708Z,16.8
2022-11-28T10:01:53.804Z,16.6
2022-11-28T10:02:56.078Z,16.6
2022-11-28T10:03:58.324Z,16.6
2022-11-28T10:05:01.659Z,16.6
2022-11-28T10:06:04.478Z,16.6
2022-11-28T10:07:06.425Z,16.7
2022-11-28T10:08:08.716Z,16.7
2022-11-28T10:09:11.182Z,16.6
2022-11-28T10:10:13.659Z,16.6
2022-11-28T10:11:15.601Z,16.6
2022-11-28T10:12:17.834Z,16.5
2022-11-28T10:13:20.072Z,16.7
2022-11-28T10:14:22.585Z,16.5
2022-11-28T10:15:25.086Z,16.6
2022-11-28T10:16:27.749Z,16.7
2022-11-28T10:17:29.609Z,16.7
2022-11-28T10:18:32.119Z,16.5
2022-11-28T10:20:39.283Z,16.6
2022-11-28T10:21:41.258Z,16.6
2022-11-28T10:22:43.469Z,16.6
2022-11-28T10:23:45.687Z,16.6
2022-11-28T10:24:48.163Z,16.5
2022-11-28T10:25:50.644Z,16.7
2022-11-28T10:26:52.849Z,16.6
2022-11-28T10:27:54.781Z,16.5
2022-11-28T10:28:56.998Z,16.6
2022-11-28T10:29:59.684Z,16.6
2022-11-28T10:31:01.761Z,16.6
2022-11-28T10:32:04.320Z,16.5
2022-11-28T10:33:06.813Z,16.6
2022-11-28T10:34:09.076Z,16.5
2022-11-28T10:35:11.317Z,16.7
2022-11-28T10:36:13.533Z,16.6
2022-11-28T10:37:16.034Z,16.6
2022-11-28T10:38:18.522Z,16.7
2022-11-28T10:39:20.732Z,16.7
2022-11-28T10:40:22.938Z,16.6
2022-11-28T10:41:25.155Z,16.7
2022-11-28T10:42:27.212Z,16.7
2022-11-28T10:43:29.700Z,16.6
2022-11-28T10:44:32.097Z,16.6
2022-11-28T10:45:34.627Z,16.7
2022-11-28T10:46:37.007Z,16.6
2022-11-28T10:47:39.825Z,16.6
2022-11-28T10:48:42.345Z,16.6
2022-11-28T10:49:45.431Z,16.6
2022-11-28T10:50:48.097Z,16.7
2022-11-28T10:51:50.627Z,16.6
2022-11-28T10:52:52.828Z,16.6
2022-11-28T10:53:55.054Z,16.5
2022-11-28T10:54:57.545Z,16.6
2022-11-28T10:56:00.024Z,16.6
2022-11-28T10:57:02.244Z,16.7
2022-11-28T10:58:04.197Z,16.6
2022-11-28T10:59:06.677Z,16.7
2022-11-28T11:00:09.232Z,16.7
2022-11-28T11:01:11.998Z,16.6
2022-11-28T11:02:14.860Z,16.7
2022-11-28T11:03:17.378Z,16.6
2022-11-28T11:04:20.044Z,16.5
2022-11-28T11:05:22.996Z,16.6
2022-11-28T11:06:32.648Z,16.7
2022-11-28T11:07:31.926Z,16.6
2022-11-28T11:08:34.635Z,16.6
2022-11-28T11:09:36.861Z,16.6
2022-11-28T11:10:39.392Z,16.7
2022-11-28T11:11:41.862Z,16.5
2022-11-28T11:12:44.058Z,16.6
2022-11-28T11:13:46.531Z,16.6
2022-11-28T11:14:48.469Z,16.7
2022-11-28T11:15:50.534Z,16.6
2022-11-28T11:16:53.112Z,16.5
2022-11-28T11:17:55.598Z,16.7
2022-11-28T11:18:58.118Z,16.6
2022-11-28T11:20:00.327Z,16.5
2022-11-28T11:21:02.560Z,16.6
2022-11-28T11:22:04.526Z,16.5
2022-11-28T11:23:07.025Z,16.5
2022-11-28T11:24:08.950Z,16.5
2022-11-28T11:25:10.867Z,16.5
2022-11-28T11:26:13.103Z,16.7
2022-11-28T11:27:15.044Z,16.7
2022-11-28T11:28:16.676Z,16.6
2022-11-28T11:29:19.168Z,16.6
2022-11-28T11:30:21.383Z,16.6
2022-11-28T11:31:23.907Z,16.6
2022-11-28T11:32:27.033Z,16.6
2022-11-28T11:33:29.517Z,16.6
2022-11-28T11:34:31.711Z,16.6
2022-11-28T11:35:33.914Z,16.6
2022-11-28T11:36:36.421Z,16.6
2022-11-28T11:37:38.637Z,16.6
2022-11-28T11:38:40.589Z,16.6
2022-11-28T11:39:43.379Z,16.7
2022-11-28T11:40:46.222Z,16.6
2022-11-28T11:41:48.145Z,16.7
2022-11-28T11:42:50.355Z,16.6
2022-11-28T11:43:52.854Z,16.5
2022-11-28T11:44:55.344Z,16.7
2022-11-28T11:45:57.375Z,16.6
2022-11-28T11:46:59.656Z,16.7
2022-11-28T11:48:02.186Z,16.6
2022-11-28T11:49:04.378Z,16.6
2022-11-28T11:50:06.596Z,16.6
2022-11-28T11:51:09.070Z,16.6
2022-11-28T11:52:11.311Z,16.5
2022-11-28T11:53:13.810Z,16.6
2022-11-28T11:54:16.298Z,16.5
2022-11-28T11:55:18.507Z,16.7
2022-11-28T11:56:20.446Z,16.6
2022-11-28T11:58:27.641Z,16.5
2022-11-28T11:59:29.582Z,16.6
2022-11-28T12:00:31.520Z,16.6
2022-11-28T12:01:34.045Z,16.6
2022-11-28T12:02:37.053Z,16.6
2022-11-28T12:03:40.664Z,16.5
2022-11-28T12:06:53.440Z,16.6
2022-11-28T12:07:55.836Z,16.7
2022-11-28T12:08:58.367Z,16.6
2022-11-28T12:11:05.537Z,16.5
2022-11-28T12:12:07.471Z,16.6
2022-11-28T12:13:09.939Z,16.5
2022-11-28T12:14:11.896Z,16.5
2022-11-28T12:15:13.817Z,16.5
2022-11-28T12:16:16.494Z,16.6
2022-11-28T12:18:24.367Z,16.5
2022-11-28T12:19:26.955Z,16.6
2022-11-28T12:20:29.431Z,16.5
2022-11-28T12:21:32.017Z,16.5
2022-11-28T12:22:34.335Z,16.6
2022-11-28T12:23:36.551Z,16.4
2022-11-28T12:24:38.460Z,16.7
2022-11-28T12:25:40.954Z,16.5
2022-11-28T12:26:43.178Z,16.6
2022-11-28T12:27:45.415Z,16.6
2022-11-28T12:28:47.790Z,16.6
2022-11-28T12:29:50.285Z,16.7
2022-11-28T12:30:52.945Z,16.6
2022-11-28T12:31:55.580Z,16.5
2022-11-28T12:32:57.522Z,16.6
2022-11-28T12:33:59.464Z,16.6
2022-11-28T12:35:02.023Z,16.6
2022-11-28T12:36:04.118Z,16.6
2022-11-28T12:37:06.638Z,16.5
2022-11-28T12:39:13.615Z,16.5
2022-11-28T12:40:15.841Z,16.6
2022-11-28T12:41:17.492Z,16.6
2022-11-28T12:42:19.759Z,16.6
2022-11-28T12:43:22.335Z,16.6
2022-11-28T12:44:24.257Z,16.6
2022-11-28T12:45:26.750Z,16.6
2022-11-28T12:46:29.332Z,16.6
2022-11-28T12:47:32.169Z,16.5
2022-11-28T12:48:34.085Z,16.6
2022-11-28T12:49:36.040Z,16.6
2022-11-28T12:50:38.637Z,16.6
2022-11-28T12:51:41.474Z,16.5
2022-11-28T12:52:44.007Z,16.5
2022-11-28T12:53:46.255Z,16.6
2022-11-28T12:54:48.328Z,16.6
2022-11-28T12:55:50.557Z,16.6
2022-11-28T12:56:52.814Z,16.7
2022-11-28T12:57:55.417Z,16.6
2022-11-28T12:58:57.915Z,16.6
2022-11-28T13:01:05.105Z,16.6
2022-11-28T13:02:22.107Z,16.5
2022-11-28T13:03:25.033Z,16.6
2022-11-28T13:04:27.626Z,16.6
2022-11-28T13:05:29.567Z,16.5
2022-11-28T13:06:32.224Z,16.6
2022-11-28T13:07:34.214Z,16.6
2022-11-28T13:08:36.696Z,16.6
2022-11-28T13:09:43.826Z,16.6
2022-11-28T13:10:47.503Z,16.6
2022-11-28T13:11:49.422Z,16.4
2022-11-28T13:12:51.697Z,16.6
2022-11-28T13:13:53.935Z,16.5
2022-11-28T13:14:56.459Z,16.6
2022-11-28T13:15:58.807Z,16.7
2022-11-28T13:17:01.063Z,16.5
2022-11-28T13:18:03.004Z,16.5
2022-11-28T13:19:04.968Z,16.6
2022-11-28T13:20:07.460Z,16.6
2022-11-28T13:21:09.970Z,16.5
2022-11-28T13:22:12.283Z,16.6
2022-11-28T13:23:14.218Z,16.7
2022-11-28T13:24:16.506Z,16.6
2022-11-28T13:25:18.744Z,16.5
2022-11-28T13:26:20.982Z,16.6
2022-11-28T13:27:23.395Z,16.6
2022-11-28T13:28:25.911Z,16.6
2022-11-28T13:29:28.136Z,16.6
2022-11-28T13:30:30.377Z,16.5
2022-11-28T13:31:32.706Z,16.5
2022-11-28T13:32:35.443Z,16.7
2022-11-28T13:33:37.953Z,16.6
2022-11-28T13:34:39.895Z,16.5
2022-11-28T13:35:41.856Z,16.5
2022-11-28T13:39:59.217Z,16.4
2022-11-28T13:41:02.042Z,16.4
2022-11-28T13:43:09.626Z,16.6
2022-11-28T13:44:11.872Z,16.5
2022-11-28T13:45:14.125Z,16.6
2022-11-28T13:46:16.759Z,16.6
2022-11-28T13:47:19.445Z,16.5
2022-11-28T13:49:26.922Z,16.5
2022-11-28T13:50:29.421Z,16.5
2022-11-28T13:51:33.719Z,16.6
2022-11-28T13:52:36.089Z,16.6
2022-11-28T13:53:37.996Z,16.7
2022-11-28T13:54:40.205Z,16.5
2022-11-28T13:55:43.568Z,16.5
2022-11-28T13:56:46.176Z,16.6
2022-11-28T13:57:48.390Z,16.5
2022-11-28T13:58:51.034Z,16.6
2022-11-28T13:59:54.260Z,16.5
2022-11-28T14:00:56.483Z,16.5
2022-11-28T14:01:59.153Z,16.6
2022-11-28T14:03:02.285Z,16.6
2022-11-28T14:04:04.778Z,16.6
2022-11-28T14:05:07.283Z,16.6
2022-11-28T14:06:09.233Z,16.5
2022-11-28T14:07:11.464Z,16.5
2022-11-28T14:08:13.399Z,16.6
2022-11-28T14:09:15.904Z,16.6
2022-11-28T14:10:18.385Z,16.5
2022-11-28T14:12:25.902Z,16.7
2022-11-28T14:13:28.548Z,16.5
2022-11-28T14:14:31.996Z,16.5
2022-11-28T14:15:34.237Z,16.6
2022-11-28T14:16:36.424Z,16.6
2022-11-28T14:17:39.224Z,16.5
2022-11-28T14:19:46.405Z,16.5
2022-11-28T14:20:48.638Z,16.6
2022-11-28T14:21:51.184Z,16.6